sensor_id;sensor_type;location;lat;lon;timestamp;pressure;altitude;pressure_sealevel;temperature;humidity
76794;BME280;65745;50.278;18.192;2023-11-21T00:00:10;98930.68;;;8.71;92.89
76794;BME280;65745;50.278;18.192;2023-11-21T00:03:04;98931.02;;;8.69;92.96
76794;BME280;65745;50.278;18.192;2023-11-21T00:05:37;98934.10;;;8.67;92.82
76794;BME280;65745;50.278;18.192;2023-11-21T00:08:12;98938.52;;;8.64;92.47
76794;BME280;65745;50.278;18.192;2023-11-21T00:10:44;98938.52;;;8.64;92.51
76794;BME280;65745;50.278;18.192;2023-11-21T00:13:16;98941.08;;;8.63;92.54
76794;BME280;65745;50.278;18.192;2023-11-21T00:15:48;98940.02;;;8.61;92.54
76794;BME280;65745;50.278;18.192;2023-11-21T00:18:20;98938.31;;;8.62;92.87
76794;BME280;65745;50.278;18.192;2023-11-21T00:20:52;98940.60;;;8.66;92.76
76794;BME280;65745;50.278;18.192;2023-11-21T00:23:24;98940.82;;;8.69;92.44
76794;BME280;65745;50.278;18.192;2023-11-21T00:25:57;98944.55;;;8.66;92.13
76794;BME280;65745;50.278;18.192;2023-11-21T00:28:29;98945.05;;;8.65;92.23
76794;BME280;65745;50.278;18.192;2023-11-21T00:31:01;98946.77;;;8.65;92.35
76794;BME280;65745;50.278;18.192;2023-11-21T00:33:34;98945.58;;;8.65;92.19
76794;BME280;65745;50.278;18.192;2023-11-21T00:36:08;98945.05;;;8.65;92.29
76794;BME280;65745;50.278;18.192;2023-11-21T00:38:40;98947.27;;;8.64;92.21
76794;BME280;65745;50.278;18.192;2023-11-21T00:41:12;98944.83;;;8.61;92.29
76794;BME280;65745;50.278;18.192;2023-11-21T00:43:44;98946.88;;;8.61;92.29
76794;BME280;65745;50.278;18.192;2023-11-21T00:46:16;98940.59;;;8.65;92.21
76794;BME280;65745;50.278;18.192;2023-11-21T00:48:49;98943.30;;;8.62;92.12
76794;BME280;65745;50.278;18.192;2023-11-21T00:51:21;98948.36;;;8.55;92.03
76794;BME280;65745;50.278;18.192;2023-11-21T00:53:53;98949.67;;;8.51;91.89
76794;BME280;65745;50.278;18.192;2023-11-21T00:56:25;98955.15;;;8.50;91.89
76794;BME280;65745;50.278;18.192;2023-11-21T00:58:57;98951.37;;;8.48;91.74
76794;BME280;65745;50.278;18.192;2023-11-21T01:01:30;98953.05;;;8.46;91.80
76794;BME280;65745;50.278;18.192;2023-11-21T01:04:02;98956.27;;;8.42;91.93
76794;BME280;65745;50.278;18.192;2023-11-21T01:06:34;98953.36;;;8.43;91.70
76794;BME280;65745;50.278;18.192;2023-11-21T01:09:06;98950.61;;;8.44;91.55
76794;BME280;65745;50.278;18.192;2023-11-21T01:11:39;98949.75;;;8.43;91.61
76794;BME280;65745;50.278;18.192;2023-11-21T01:14:11;98953.70;;;8.43;91.47
76794;BME280;65745;50.278;18.192;2023-11-21T01:16:44;98949.55;;;8.41;91.66
76794;BME280;65745;50.278;18.192;2023-11-21T01:19:16;98948.52;;;8.41;91.46
76794;BME280;65745;50.278;18.192;2023-11-21T01:21:48;98953.83;;;8.40;91.29
76794;BME280;65745;50.278;18.192;2023-11-21T01:24:20;98955.19;;;8.40;91.29
76794;BME280;65745;50.278;18.192;2023-11-21T01:26:52;98954.82;;;8.37;91.41
76794;BME280;65745;50.278;18.192;2023-11-21T01:29:24;98958.73;;;8.34;91.50
76794;BME280;65745;50.278;18.192;2023-11-21T01:31:56;98959.70;;;8.31;91.58
76794;BME280;65745;50.278;18.192;2023-11-21T01:34:29;98962.21;;;8.28;91.82
76794;BME280;65745;50.278;18.192;2023-11-21T01:37:01;98962.00;;;8.26;91.79
76794;BME280;65745;50.278;18.192;2023-11-21T01:39:35;98964.90;;;8.24;91.98
76794;BME280;65745;50.278;18.192;2023-11-21T01:42:09;98961.46;;;8.23;92.04
76794;BME280;65745;50.278;18.192;2023-11-21T01:44:43;98965.88;;;8.21;92.24
76794;BME280;65745;50.278;18.192;2023-11-21T01:47:17;98964.84;;;8.20;92.47
76794;BME280;65745;50.278;18.192;2023-11-21T01:49:49;98960.94;;;8.23;92.51
76794;BME280;65745;50.278;18.192;2023-11-21T01:52:22;98959.03;;;8.32;92.00
76794;BME280;65745;50.278;18.192;2023-11-21T01:54:58;98956.20;;;8.38;91.74
76794;BME280;65745;50.278;18.192;2023-11-21T01:57:31;98955.42;;;8.44;91.63
76794;BME280;65745;50.278;18.192;2023-11-21T02:00:04;98953.41;;;8.47;91.36
76794;BME280;65745;50.278;18.192;2023-11-21T02:02:46;98954.45;;;8.47;91.49
76794;BME280;65745;50.278;18.192;2023-11-21T02:05:19;98949.09;;;8.46;91.38
76794;BME280;65745;50.278;18.192;2023-11-21T02:07:52;98952.23;;;8.50;91.35
76794;BME280;65745;50.278;18.192;2023-11-21T02:10:24;98947.81;;;8.53;91.15
76794;BME280;65745;50.278;18.192;2023-11-21T02:12:56;98951.09;;;8.53;91.13
76794;BME280;65745;50.278;18.192;2023-11-21T02:15:29;98954.53;;;8.54;91.28
76794;BME280;65745;50.278;18.192;2023-11-21T02:18:02;98951.80;;;8.55;91.64
76794;BME280;65745;50.278;18.192;2023-11-21T02:20:37;98956.30;;;8.59;91.60
76794;BME280;65745;50.278;18.192;2023-11-21T02:23:12;98953.39;;;8.59;91.80
76794;BME280;65745;50.278;18.192;2023-11-21T02:25:45;98955.27;;;8.58;91.90
76794;BME280;65745;50.278;18.192;2023-11-21T02:28:19;98958.90;;;8.61;91.73
76794;BME280;65745;50.278;18.192;2023-11-21T02:30:57;98957.85;;;8.59;91.52
76794;BME280;65745;50.278;18.192;2023-11-21T02:33:30;98958.16;;;8.56;91.71
76794;BME280;65745;50.278;18.192;2023-11-21T02:36:05;98965.29;;;8.50;91.61
76794;BME280;65745;50.278;18.192;2023-11-21T02:38:37;98966.94;;;8.45;91.59
76794;BME280;65745;50.278;18.192;2023-11-21T02:41:09;98969.49;;;8.43;91.59
76794;BME280;65745;50.278;18.192;2023-11-21T02:43:41;98967.79;;;8.44;91.58
76794;BME280;65745;50.278;18.192;2023-11-21T02:46:13;98965.40;;;8.45;91.45
76794;BME280;65745;50.278;18.192;2023-11-21T02:48:45;98967.16;;;8.49;91.52
76794;BME280;65745;50.278;18.192;2023-11-21T02:51:18;98968.25;;;8.54;91.38
76794;BME280;65745;50.278;18.192;2023-11-21T02:53:49;98970.33;;;8.56;91.42
76794;BME280;65745;50.278;18.192;2023-11-21T02:56:22;98971.02;;;8.56;91.30
76794;BME280;65745;50.278;18.192;2023-11-21T02:58:56;98971.12;;;8.64;91.15
76794;BME280;65745;50.278;18.192;2023-11-21T03:01:29;98972.38;;;8.68;90.81
76794;BME280;65745;50.278;18.192;2023-11-21T03:04:01;98974.52;;;8.61;91.05
76794;BME280;65745;50.278;18.192;2023-11-21T03:06:34;98979.33;;;8.61;91.17
76794;BME280;65745;50.278;18.192;2023-11-21T03:09:06;98981.03;;;8.61;91.14
76794;BME280;65745;50.278;18.192;2023-11-21T03:11:38;98977.36;;;8.54;91.19
76794;BME280;65745;50.278;18.192;2023-11-21T03:14:10;98976.67;;;8.54;91.03
76794;BME280;65745;50.278;18.192;2023-11-21T03:16:42;98974.55;;;8.50;90.92
76794;BME280;65745;50.278;18.192;2023-11-21T03:19:15;98976.46;;;8.39;90.53
76794;BME280;65745;50.278;18.192;2023-11-21T03:21:47;98976.92;;;8.35;90.64
76794;BME280;65745;50.278;18.192;2023-11-21T03:24:21;98978.40;;;8.42;90.39
76794;BME280;65745;50.278;18.192;2023-11-21T03:26:53;98972.66;;;8.37;89.91
76794;BME280;65745;50.278;18.192;2023-11-21T03:29:25;98975.09;;;8.39;90.17
76794;BME280;65745;50.278;18.192;2023-11-21T03:31:57;98974.22;;;8.38;90.29
76794;BME280;65745;50.278;18.192;2023-11-21T03:34:29;98975.54;;;8.35;90.54
76794;BME280;65745;50.278;18.192;2023-11-21T03:37:01;98976.69;;;8.31;90.78
76794;BME280;65745;50.278;18.192;2023-11-21T03:39:33;98975.86;;;8.33;90.85
76794;BME280;65745;50.278;18.192;2023-11-21T03:42:06;98979.30;;;8.33;90.29
76794;BME280;65745;50.278;18.192;2023-11-21T03:44:38;98985.59;;;8.30;90.78
76794;BME280;65745;50.278;18.192;2023-11-21T03:47:10;98988.77;;;8.25;90.67
76794;BME280;65745;50.278;18.192;2023-11-21T03:49:43;98986.09;;;8.18;90.70
76794;BME280;65745;50.278;18.192;2023-11-21T03:52:17;98986.23;;;8.16;90.95
76794;BME280;65745;50.278;18.192;2023-11-21T03:54:49;98989.78;;;8.13;91.37
76794;BME280;65745;50.278;18.192;2023-11-21T03:57:21;98990.88;;;8.17;91.63
76794;BME280;65745;50.278;18.192;2023-11-21T03:59:53;98996.08;;;8.21;91.43
76794;BME280;65745;50.278;18.192;2023-11-21T04:02:25;98994.36;;;8.22;91.42
76794;BME280;65745;50.278;18.192;2023-11-21T04:04:59;98999.20;;;8.23;91.34
76794;BME280;65745;50.278;18.192;2023-11-21T04:07:31;98996.78;;;8.22;91.44
76794;BME280;65745;50.278;18.192;2023-11-21T04:10:04;98993.52;;;8.22;91.38
76794;BME280;65745;50.278;18.192;2023-11-21T04:12:38;98995.02;;;8.19;91.56
76794;BME280;65745;50.278;18.192;2023-11-21T04:15:11;98993.61;;;8.16;91.76
76794;BME280;65745;50.278;18.192;2023-11-21T04:17:44;98992.40;;;8.15;91.90
76794;BME280;65745;50.278;18.192;2023-11-21T04:20:16;98992.95;;;8.19;92.02
76794;BME280;65745;50.278;18.192;2023-11-21T04:22:48;98995.30;;;8.15;92.33
76794;BME280;65745;50.278;18.192;2023-11-21T04:25:21;98996.70;;;8.16;92.11
76794;BME280;65745;50.278;18.192;2023-11-21T04:27:54;98997.30;;;8.22;91.72
76794;BME280;65745;50.278;18.192;2023-11-21T04:30:26;98998.05;;;8.26;91.64
76794;BME280;65745;50.278;18.192;2023-11-21T04:32:58;98997.27;;;8.31;91.42
76794;BME280;65745;50.278;18.192;2023-11-21T04:35:30;99000.77;;;8.34;91.32
76794;BME280;65745;50.278;18.192;2023-11-21T04:38:02;99002.32;;;8.36;91.20
76794;BME280;65745;50.278;18.192;2023-11-21T04:40:34;99001.70;;;8.38;90.93
76794;BME280;65745;50.278;18.192;2023-11-21T04:43:06;99003.75;;;8.39;90.93
76794;BME280;65745;50.278;18.192;2023-11-21T04:45:38;99007.70;;;8.39;90.92
76794;BME280;65745;50.278;18.192;2023-11-21T04:48:11;99008.33;;;8.36;90.67
76794;BME280;65745;50.278;18.192;2023-11-21T04:50:45;99013.60;;;8.32;90.69
76794;BME280;65745;50.278;18.192;2023-11-21T04:53:16;99023.30;;;8.29;90.76
76794;BME280;65745;50.278;18.192;2023-11-21T04:55:48;99024.75;;;8.23;90.61
76794;BME280;65745;50.278;18.192;2023-11-21T04:58:21;99025.72;;;8.19;90.68
76794;BME280;65745;50.278;18.192;2023-11-21T05:00:53;99026.16;;;8.14;90.68
76794;BME280;65745;50.278;18.192;2023-11-21T05:03:25;99027.48;;;8.11;90.65
76794;BME280;65745;50.278;18.192;2023-11-21T05:05:57;99031.50;;;8.05;90.56
76794;BME280;65745;50.278;18.192;2023-11-21T05:08:30;99028.52;;;8.00;90.74
76794;BME280;65745;50.278;18.192;2023-11-21T05:11:02;99026.73;;;7.96;90.82
76794;BME280;65745;50.278;18.192;2023-11-21T05:13:35;99024.98;;;7.94;90.69
76794;BME280;65745;50.278;18.192;2023-11-21T05:16:08;99025.63;;;7.92;90.94
76794;BME280;65745;50.278;18.192;2023-11-21T05:18:40;99026.98;;;7.90;91.35
76794;BME280;65745;50.278;18.192;2023-11-21T05:21:12;99028.78;;;7.84;91.51
76794;BME280;65745;50.278;18.192;2023-11-21T05:23:44;99029.00;;;7.78;91.82
76794;BME280;65745;50.278;18.192;2023-11-21T05:26:16;99027.75;;;7.74;91.99
76794;BME280;65745;50.278;18.192;2023-11-21T05:28:48;99033.41;;;7.75;92.08
76794;BME280;65745;50.278;18.192;2023-11-21T05:31:21;99036.13;;;7.74;92.18
76794;BME280;65745;50.278;18.192;2023-11-21T05:33:53;99038.55;;;7.75;92.37
76794;BME280;65745;50.278;18.192;2023-11-21T05:36:25;99036.81;;;7.83;91.97
76794;BME280;65745;50.278;18.192;2023-11-21T05:38:57;99035.27;;;7.84;92.11
76794;BME280;65745;50.278;18.192;2023-11-21T05:41:29;99036.30;;;7.84;91.86
76794;BME280;65745;50.278;18.192;2023-11-21T05:44:01;99037.64;;;7.82;91.83
76794;BME280;65745;50.278;18.192;2023-11-21T05:46:33;99045.97;;;7.78;92.02
76794;BME280;65745;50.278;18.192;2023-11-21T05:49:05;99049.81;;;7.72;92.09
76794;BME280;65745;50.278;18.192;2023-11-21T05:51:39;99053.70;;;7.69;92.28
76794;BME280;65745;50.278;18.192;2023-11-21T05:54:11;99055.49;;;7.63;92.51
76794;BME280;65745;50.278;18.192;2023-11-21T05:56:42;99049.23;;;7.59;92.58
76794;BME280;65745;50.278;18.192;2023-11-21T05:59:14;99051.67;;;7.60;92.73
76794;BME280;65745;50.278;18.192;2023-11-21T06:01:46;99060.81;;;7.64;92.69
76794;BME280;65745;50.278;18.192;2023-11-21T06:04:18;99062.98;;;7.70;92.31
76794;BME280;65745;50.278;18.192;2023-11-21T06:06:53;99067.20;;;7.77;91.96
76794;BME280;65745;50.278;18.192;2023-11-21T06:09:25;99072.58;;;7.80;91.85
76794;BME280;65745;50.278;18.192;2023-11-21T06:11:58;99073.23;;;7.79;91.84
76794;BME280;65745;50.278;18.192;2023-11-21T06:14:30;99079.25;;;7.80;91.72
76794;BME280;65745;50.278;18.192;2023-11-21T06:17:04;99086.84;;;7.82;91.76
76794;BME280;65745;50.278;18.192;2023-11-21T06:19:36;99086.59;;;7.87;91.54
76794;BME280;65745;50.278;18.192;2023-11-21T06:22:08;99088.92;;;7.93;91.42
76794;BME280;65745;50.278;18.192;2023-11-21T06:24:41;99089.80;;;7.94;91.06
76794;BME280;65745;50.278;18.192;2023-11-21T06:27:13;99092.00;;;7.92;91.46
76794;BME280;65745;50.278;18.192;2023-11-21T06:29:46;99090.70;;;7.96;91.37
76794;BME280;65745;50.278;18.192;2023-11-21T06:32:18;99091.45;;;8.00;91.18
76794;BME280;65745;50.278;18.192;2023-11-21T06:34:51;99090.01;;;8.06;91.28
76794;BME280;65745;50.278;18.192;2023-11-21T06:37:25;99085.58;;;8.08;91.01
76794;BME280;65745;50.278;18.192;2023-11-21T06:39:58;99086.79;;;8.08;90.87
76794;BME280;65745;50.278;18.192;2023-11-21T06:42:31;99086.21;;;8.05;90.98
76794;BME280;65745;50.278;18.192;2023-11-21T06:45:05;99090.45;;;8.02;90.89
76794;BME280;65745;50.278;18.192;2023-11-21T06:47:38;99095.40;;;8.00;91.04
76794;BME280;65745;50.278;18.192;2023-11-21T06:50:12;99095.60;;;8.01;90.90
76794;BME280;65745;50.278;18.192;2023-11-21T06:52:44;99097.70;;;7.95;90.72
76794;BME280;65745;50.278;18.192;2023-11-21T06:55:16;99103.06;;;7.87;90.92
76794;BME280;65745;50.278;18.192;2023-11-21T06:57:48;99106.16;;;7.89;90.92
76794;BME280;65745;50.278;18.192;2023-11-21T07:00:21;99105.83;;;7.88;90.84
76794;BME280;65745;50.278;18.192;2023-11-21T07:02:53;99113.45;;;7.84;91.13
76794;BME280;65745;50.278;18.192;2023-11-21T07:05:25;99109.13;;;7.81;91.44
76794;BME280;65745;50.278;18.192;2023-11-21T07:07:57;99106.58;;;7.83;91.36
76794;BME280;65745;50.278;18.192;2023-11-21T07:10:35;99112.52;;;7.89;91.24
76794;BME280;65745;50.278;18.192;2023-11-21T07:13:10;99113.42;;;7.91;91.14
76794;BME280;65745;50.278;18.192;2023-11-21T07:15:43;99115.23;;;7.97;90.97
76794;BME280;65745;50.278;18.192;2023-11-21T07:18:15;99117.23;;;8.03;90.81
76794;BME280;65745;50.278;18.192;2023-11-21T07:20:48;99120.91;;;8.07;90.59
76794;BME280;65745;50.278;18.192;2023-11-21T07:23:20;99125.88;;;8.08;90.14
76794;BME280;65745;50.278;18.192;2023-11-21T07:25:53;99128.11;;;8.08;90.37
76794;BME280;65745;50.278;18.192;2023-11-21T07:28:26;99128.89;;;8.13;90.26
76794;BME280;65745;50.278;18.192;2023-11-21T07:30:58;99130.52;;;8.18;90.27
76794;BME280;65745;50.278;18.192;2023-11-21T07:33:30;99131.05;;;8.20;90.43
76794;BME280;65745;50.278;18.192;2023-11-21T07:36:03;99129.41;;;8.24;90.19
76794;BME280;65745;50.278;18.192;2023-11-21T07:38:35;99129.64;;;8.27;90.61
76794;BME280;65745;50.278;18.192;2023-11-21T07:41:08;99129.39;;;8.31;90.79
76794;BME280;65745;50.278;18.192;2023-11-21T07:43:55;99126.99;;;8.42;90.64
76794;BME280;65745;50.278;18.192;2023-11-21T07:46:28;99128.73;;;8.54;90.49
76794;BME280;65745;50.278;18.192;2023-11-21T07:49:01;99132.96;;;8.62;89.67
76794;BME280;65745;50.278;18.192;2023-11-21T07:51:34;99132.77;;;8.71;90.07
76794;BME280;65745;50.278;18.192;2023-11-21T07:54:06;99136.98;;;8.77;90.01
76794;BME280;65745;50.278;18.192;2023-11-21T07:56:38;99137.55;;;8.82;89.27
76794;BME280;65745;50.278;18.192;2023-11-21T07:59:10;99139.48;;;8.83;89.82
76794;BME280;65745;50.278;18.192;2023-11-21T08:01:43;99141.92;;;8.87;89.57
76794;BME280;65745;50.278;18.192;2023-11-21T08:04:16;99143.16;;;8.89;89.54
76794;BME280;65745;50.278;18.192;2023-11-21T08:06:49;99147.72;;;8.95;90.02
76794;BME280;65745;50.278;18.192;2023-11-21T08:09:21;99147.92;;;8.99;90.27
76794;BME280;65745;50.278;18.192;2023-11-21T08:11:54;99143.39;;;9.05;89.78
76794;BME280;65745;50.278;18.192;2023-11-21T08:14:27;99146.60;;;9.02;89.28
76794;BME280;65745;50.278;18.192;2023-11-21T08:16:59;99144.77;;;9.06;89.21
76794;BME280;65745;50.278;18.192;2023-11-21T08:19:31;99146.17;;;9.09;88.79
76794;BME280;65745;50.278;18.192;2023-11-21T08:22:04;99140.91;;;9.13;89.19
76794;BME280;65745;50.278;18.192;2023-11-21T08:24:38;99146.27;;;9.14;88.63
76794;BME280;65745;50.278;18.192;2023-11-21T08:27:10;99149.38;;;9.16;88.87
76794;BME280;65745;50.278;18.192;2023-11-21T08:29:42;99149.28;;;9.22;88.75
76794;BME280;65745;50.278;18.192;2023-11-21T08:32:15;99151.30;;;9.32;88.83
76794;BME280;65745;50.278;18.192;2023-11-21T08:34:47;99150.60;;;9.45;88.31
76794;BME280;65745;50.278;18.192;2023-11-21T08:37:21;99151.77;;;9.56;88.51
76794;BME280;65745;50.278;18.192;2023-11-21T08:39:54;99157.34;;;9.63;87.43
76794;BME280;65745;50.278;18.192;2023-11-21T08:42:26;99157.27;;;9.70;87.43
76794;BME280;65745;50.278;18.192;2023-11-21T08:45:00;99161.64;;;9.76;87.28
76794;BME280;65745;50.278;18.192;2023-11-21T08:47:33;99163.24;;;9.83;87.05
76794;BME280;65745;50.278;18.192;2023-11-21T08:50:08;99161.14;;;9.95;86.55
76794;BME280;65745;50.278;18.192;2023-11-21T08:52:40;99159.34;;;10.04;86.59
76794;BME280;65745;50.278;18.192;2023-11-21T08:55:13;99157.89;;;10.13;86.32
76794;BME280;65745;50.278;18.192;2023-11-21T08:57:46;99158.69;;;10.21;85.95
76794;BME280;65745;50.278;18.192;2023-11-21T09:00:18;99157.25;;;10.34;86.22
76794;BME280;65745;50.278;18.192;2023-11-21T09:02:52;99156.35;;;10.50;85.80
76794;BME280;65745;50.278;18.192;2023-11-21T09:05:25;99156.69;;;10.72;85.14
76794;BME280;65745;50.278;18.192;2023-11-21T09:07:57;99159.06;;;10.92;84.50
76794;BME280;65745;50.278;18.192;2023-11-21T09:10:31;99162.92;;;11.04;84.33
76794;BME280;65745;50.278;18.192;2023-11-21T09:13:03;99161.55;;;11.02;83.51
76794;BME280;65745;50.278;18.192;2023-11-21T09:15:35;99164.48;;;11.03;83.05
76794;BME280;65745;50.278;18.192;2023-11-21T09:18:07;99168.52;;;11.16;83.40
76794;BME280;65745;50.278;18.192;2023-11-21T09:20:39;99166.45;;;11.14;82.85
76794;BME280;65745;50.278;18.192;2023-11-21T09:23:11;99167.30;;;11.12;83.11
76794;BME280;65745;50.278;18.192;2023-11-21T09:25:43;99168.16;;;11.11;82.17
76794;BME280;65745;50.278;18.192;2023-11-21T09:28:19;99161.65;;;10.91;81.19
76794;BME280;65745;50.278;18.192;2023-11-21T09:30:51;99166.02;;;10.76;81.60
76794;BME280;65745;50.278;18.192;2023-11-21T09:33:23;99160.30;;;10.72;81.99
76794;BME280;65745;50.278;18.192;2023-11-21T09:35:56;99159.73;;;10.64;81.12
76794;BME280;65745;50.278;18.192;2023-11-21T09:38:28;99155.23;;;10.58;81.11
76794;BME280;65745;50.278;18.192;2023-11-21T09:41:02;99159.29;;;10.51;81.54
76794;BME280;65745;50.278;18.192;2023-11-21T09:43:37;99160.23;;;10.41;81.87
76794;BME280;65745;50.278;18.192;2023-11-21T09:46:11;99165.51;;;10.34;81.89
76794;BME280;65745;50.278;18.192;2023-11-21T09:48:52;99160.66;;;10.29;82.41
76794;BME280;65745;50.278;18.192;2023-11-21T09:51:25;99159.64;;;10.33;82.58
76794;BME280;65745;50.278;18.192;2023-11-21T09:54:04;99156.77;;;10.38;82.30
76794;BME280;65745;50.278;18.192;2023-11-21T09:56:40;99152.27;;;10.36;82.01
76794;BME280;65745;50.278;18.192;2023-11-21T09:59:15;99149.52;;;10.35;82.34
76794;BME280;65745;50.278;18.192;2023-11-21T10:01:47;99150.48;;;10.27;82.17
76794;BME280;65745;50.278;18.192;2023-11-21T10:04:21;99149.96;;;10.12;82.06
76794;BME280;65745;50.278;18.192;2023-11-21T10:06:54;99151.40;;;10.01;81.98
76794;BME280;65745;50.278;18.192;2023-11-21T10:09:27;99152.38;;;9.96;82.22
76794;BME280;65745;50.278;18.192;2023-11-21T10:12:00;99154.00;;;9.87;82.19
76794;BME280;65745;50.278;18.192;2023-11-21T10:14:34;99158.40;;;9.80;81.82
76794;BME280;65745;50.278;18.192;2023-11-21T10:17:06;99160.89;;;9.72;82.02
76794;BME280;65745;50.278;18.192;2023-11-21T10:19:40;99163.95;;;9.68;81.98
76794;BME280;65745;50.278;18.192;2023-11-21T10:22:12;99167.02;;;9.65;82.41
76794;BME280;65745;50.278;18.192;2023-11-21T10:24:45;99166.64;;;9.63;81.88
76794;BME280;65745;50.278;18.192;2023-11-21T10:27:24;99169.05;;;9.63;82.33
76794;BME280;65745;50.278;18.192;2023-11-21T10:29:58;99171.88;;;9.55;81.89
76794;BME280;65745;50.278;18.192;2023-11-21T10:32:33;99171.25;;;9.47;81.42
76794;BME280;65745;50.278;18.192;2023-11-21T10:35:07;99171.20;;;9.43;81.44
76794;BME280;65745;50.278;18.192;2023-11-21T10:37:41;99172.99;;;9.35;81.70
76794;BME280;65745;50.278;18.192;2023-11-21T10:40:14;99173.10;;;9.30;81.76
76794;BME280;65745;50.278;18.192;2023-11-21T10:42:46;99172.19;;;9.26;82.02
76794;BME280;65745;50.278;18.192;2023-11-21T10:45:18;99170.61;;;9.24;81.82
76794;BME280;65745;50.278;18.192;2023-11-21T10:47:52;99172.29;;;9.20;82.11
76794;BME280;65745;50.278;18.192;2023-11-21T10:50:25;99173.96;;;9.18;82.17
76794;BME280;65745;50.278;18.192;2023-11-21T10:52:57;99172.89;;;9.15;82.18
76794;BME280;65745;50.278;18.192;2023-11-21T10:55:29;99172.67;;;9.12;82.51
76794;BME280;65745;50.278;18.192;2023-11-21T10:58:03;99175.04;;;9.09;83.09
76794;BME280;65745;50.278;18.192;2023-11-21T11:00:36;99177.11;;;9.09;82.64
76794;BME280;65745;50.278;18.192;2023-11-21T11:03:11;99180.34;;;9.06;82.84
76794;BME280;65745;50.278;18.192;2023-11-21T11:05:47;99178.56;;;9.03;83.28
76794;BME280;65745;50.278;18.192;2023-11-21T11:08:24;99177.91;;;9.05;83.38
76794;BME280;65745;50.278;18.192;2023-11-21T11:10:58;99176.92;;;9.08;83.64
76794;BME280;65745;50.278;18.192;2023-11-21T11:13:31;99177.15;;;9.12;83.60
76794;BME280;65745;50.278;18.192;2023-11-21T11:16:04;99178.34;;;9.12;83.81
76794;BME280;65745;50.278;18.192;2023-11-21T11:18:38;99175.60;;;9.11;83.92
76794;BME280;65745;50.278;18.192;2023-11-21T11:21:19;99178.70;;;9.12;84.19
76794;BME280;65745;50.278;18.192;2023-11-21T11:24:11;99181.05;;;9.09;84.45
76794;BME280;65745;50.278;18.192;2023-11-21T11:26:50;99177.39;;;9.06;84.34
76794;BME280;65745;50.278;18.192;2023-11-21T11:29:33;99178.15;;;8.98;84.32
76794;BME280;65745;50.278;18.192;2023-11-21T11:32:16;99175.20;;;8.94;84.52
76794;BME280;65745;50.278;18.192;2023-11-21T11:34:59;99175.02;;;8.94;84.88
76794;BME280;65745;50.278;18.192;2023-11-21T11:37:33;99174.33;;;8.94;84.89
76794;BME280;65745;50.278;18.192;2023-11-21T11:40:10;99176.07;;;8.95;85.62
76794;BME280;65745;50.278;18.192;2023-11-21T11:42:57;99176.59;;;8.97;85.47
76794;BME280;65745;50.278;18.192;2023-11-21T11:45:35;99179.50;;;8.97;85.21
76794;BME280;65745;50.278;18.192;2023-11-21T11:48:13;99179.97;;;8.93;85.28
76794;BME280;65745;50.278;18.192;2023-11-21T11:51:02;99179.08;;;8.90;85.57
76794;BME280;65745;50.278;18.192;2023-11-21T11:53:37;99181.83;;;8.91;85.76
76794;BME280;65745;50.278;18.192;2023-11-21T11:56:26;99181.95;;;8.88;85.34
76794;BME280;65745;50.278;18.192;2023-11-21T11:59:02;99183.98;;;8.85;86.11
76794;BME280;65745;50.278;18.192;2023-11-21T12:01:35;99184.65;;;8.84;86.31
76794;BME280;65745;50.278;18.192;2023-11-21T12:04:26;99183.80;;;8.85;86.27
76794;BME280;65745;50.278;18.192;2023-11-21T12:07:06;99182.26;;;8.85;86.98
76794;BME280;65745;50.278;18.192;2023-11-21T12:09:39;99185.54;;;8.86;86.49
76794;BME280;65745;50.278;18.192;2023-11-21T12:12:11;99186.70;;;8.84;86.50
76794;BME280;65745;50.278;18.192;2023-11-21T12:14:43;99185.12;;;8.82;86.46
76794;BME280;65745;50.278;18.192;2023-11-21T12:17:16;99183.64;;;8.74;86.77
76794;BME280;65745;50.278;18.192;2023-11-21T12:19:48;99179.64;;;8.71;86.45
76794;BME280;65745;50.278;18.192;2023-11-21T12:22:23;99184.39;;;8.68;86.97
76794;BME280;65745;50.278;18.192;2023-11-21T12:24:56;99186.71;;;8.63;87.46
76794;BME280;65745;50.278;18.192;2023-11-21T12:27:29;99183.61;;;8.63;87.38
76794;BME280;65745;50.278;18.192;2023-11-21T12:30:01;99183.86;;;8.67;87.58
76794;BME280;65745;50.278;18.192;2023-11-21T12:32:33;99182.50;;;8.68;88.05
76794;BME280;65745;50.278;18.192;2023-11-21T12:35:09;99186.20;;;8.73;87.28
76794;BME280;65745;50.278;18.192;2023-11-21T12:37:42;99180.10;;;8.68;88.10
76794;BME280;65745;50.278;18.192;2023-11-21T12:40:15;99180.62;;;8.68;87.98
76794;BME280;65745;50.278;18.192;2023-11-21T12:42:50;99180.67;;;8.72;87.81
76794;BME280;65745;50.278;18.192;2023-11-21T12:45:25;99179.48;;;8.72;88.11
76794;BME280;65745;50.278;18.192;2023-11-21T12:48:00;99184.13;;;8.73;88.40
76794;BME280;65745;50.278;18.192;2023-11-21T12:50:35;99183.27;;;8.73;89.06
76794;BME280;65745;50.278;18.192;2023-11-21T12:53:10;99185.36;;;8.74;88.68
76794;BME280;65745;50.278;18.192;2023-11-21T12:55:44;99186.45;;;8.79;88.55
76794;BME280;65745;50.278;18.192;2023-11-21T12:58:23;99189.89;;;8.79;88.82
76794;BME280;65745;50.278;18.192;2023-11-21T13:00:58;99192.34;;;8.82;88.46
76794;BME280;65745;50.278;18.192;2023-11-21T13:03:31;99191.44;;;8.80;88.31
76794;BME280;65745;50.278;18.192;2023-11-21T13:06:04;99194.64;;;8.75;88.25
76794;BME280;65745;50.278;18.192;2023-11-21T13:08:38;99194.20;;;8.70;88.26
76794;BME280;65745;50.278;18.192;2023-11-21T13:11:11;99199.12;;;8.66;88.19
76794;BME280;65745;50.278;18.192;2023-11-21T13:13:45;99198.38;;;8.62;88.32
76794;BME280;65745;50.278;18.192;2023-11-21T13:16:17;99200.52;;;8.57;88.42
76794;BME280;65745;50.278;18.192;2023-11-21T13:18:51;99197.92;;;8.57;88.52
76794;BME280;65745;50.278;18.192;2023-11-21T13:21:23;99201.33;;;8.54;88.40
76794;BME280;65745;50.278;18.192;2023-11-21T13:23:57;99201.08;;;8.49;89.29
76794;BME280;65745;50.278;18.192;2023-11-21T13:26:29;99205.33;;;8.47;88.71
76794;BME280;65745;50.278;18.192;2023-11-21T13:29:01;99202.40;;;8.46;89.08
76794;BME280;65745;50.278;18.192;2023-11-21T13:31:36;99206.15;;;8.45;89.30